sensor_id;sensor_type;location;lat;lon;timestamp;temperature;humidity
76211;DHT22;65003;49.518;11.280;2024-02-15T00:02:08;10.20;99.90
76211;DHT22;65003;49.518;11.280;2024-02-15T00:04:36;10.10;99.90
76211;DHT22;65003;49.518;11.280;2024-02-15T00:07:02;10.20;99.90
76211;DHT22;65003;49.518;11.280;2024-02-15T00:09:29;10.30;99.90
76211;DHT22;65003;49.518;11.280;2024-02-15T00:11:55;10.20;99.90
76211;DHT22;65003;49.518;11.280;2024-02-15T00:14:22;10.20;99.90
76211;DHT22;65003;49.518;11.280;2024-02-15T00:16:49;10.20;99.90
76211;DHT22;65003;49.518;11.280;2024-02-15T00:19:15;10.20;99.90
76211;DHT22;65003;49.518;11.280;2024-02-15T00:21:43;10.40;99.90
76211;DHT22;65003;49.518;11.280;2024-02-15T00:24:09;10.30;99.90
76211;DHT22;65003;49.518;11.280;2024-02-15T00:26:36;10.30;99.90
76211;DHT22;65003;49.518;11.280;2024-02-15T00:29:02;10.10;99.90
76211;DHT22;65003;49.518;11.280;2024-02-15T00:31:29;10.30;99.90
76211;DHT22;65003;49.518;11.280;2024-02-15T00:33:55;10.30;99.90
76211;DHT22;65003;49.518;11.280;2024-02-15T00:36:22;10.30;99.90
76211;DHT22;65003;49.518;11.280;2024-02-15T00:38:49;10.40;99.90
76211;DHT22;65003;49.518;11.280;2024-02-15T00:41:15;10.40;99.90
76211;DHT22;65003;49.518;11.280;2024-02-15T00:43:42;10.30;99.90
76211;DHT22;65003;49.518;11.280;2024-02-15T00:46:08;10.60;99.90
76211;DHT22;65003;49.518;11.280;2024-02-15T00:48:35;10.30;99.90
76211;DHT22;65003;49.518;11.280;2024-02-15T00:51:02;10.40;99.90
76211;DHT22;65003;49.518;11.280;2024-02-15T00:53:28;10.40;99.90
76211;DHT22;65003;49.518;11.280;2024-02-15T00:55:55;10.40;99.90
76211;DHT22;65003;49.518;11.280;2024-02-15T00:58:21;10.40;99.90
76211;DHT22;65003;49.518;11.280;2024-02-15T01:00:48;10.60;99.90
76211;DHT22;65003;49.518;11.280;2024-02-15T01:03:15;10.40;99.90
76211;DHT22;65003;49.518;11.280;2024-02-15T01:05:41;10.50;99.90
76211;DHT22;65003;49.518;11.280;2024-02-15T01:08:08;10.50;99.90
76211;DHT22;65003;49.518;11.280;2024-02-15T01:10:34;10.40;99.90
76211;DHT22;65003;49.518;11.280;2024-02-15T01:13:01;10.50;99.90
76211;DHT22;65003;49.518;11.280;2024-02-15T01:15:27;10.50;99.90
76211;DHT22;65003;49.518;11.280;2024-02-15T01:17:54;10.50;99.90
76211;DHT22;65003;49.518;11.280;2024-02-15T01:20:21;10.50;99.90
76211;DHT22;65003;49.518;11.280;2024-02-15T01:22:47;10.30;99.90
76211;DHT22;65003;49.518;11.280;2024-02-15T01:25:14;10.50;99.90
76211;DHT22;65003;49.518;11.280;2024-02-15T01:27:41;10.30;99.90
76211;DHT22;65003;49.518;11.280;2024-02-15T01:30:08;10.40;99.90
76211;DHT22;65003;49.518;11.280;2024-02-15T01:32:34;10.20;99.90
76211;DHT22;65003;49.518;11.280;2024-02-15T01:35:01;10.40;99.90
76211;DHT22;65003;49.518;11.280;2024-02-15T01:37:28;10.50;99.90
76211;DHT22;65003;49.518;11.280;2024-02-15T01:39:54;10.40;99.90
76211;DHT22;65003;49.518;11.280;2024-02-15T01:42:21;10.40;99.90
76211;DHT22;65003;49.518;11.280;2024-02-15T01:44:47;10.50;99.90
76211;DHT22;65003;49.518;11.280;2024-02-15T01:47:14;10.50;99.90
76211;DHT22;65003;49.518;11.280;2024-02-15T01:49:41;10.60;99.90
76211;DHT22;65003;49.518;11.280;2024-02-15T01:52:07;10.70;99.90
76211;DHT22;65003;49.518;11.280;2024-02-15T01:54:35;10.70;99.90
76211;DHT22;65003;49.518;11.280;2024-02-15T01:57:02;10.60;99.90
76211;DHT22;65003;49.518;11.280;2024-02-15T01:59:29;10.60;99.90
76211;DHT22;65003;49.518;11.280;2024-02-15T02:01:55;10.60;99.90
76211;DHT22;65003;49.518;11.280;2024-02-15T02:04:22;10.50;99.90
76211;DHT22;65003;49.518;11.280;2024-02-15T02:06:48;10.40;99.90
76211;DHT22;65003;49.518;11.280;2024-02-15T02:09:15;10.50;99.90
76211;DHT22;65003;49.518;11.280;2024-02-15T02:11:42;9.50;99.90
76211;DHT22;65003;49.518;11.280;2024-02-15T02:14:08;10.40;99.90
76211;DHT22;65003;49.518;11.280;2024-02-15T02:16:35;10.40;99.90
76211;DHT22;65003;49.518;11.280;2024-02-15T02:19:01;10.50;99.90
76211;DHT22;65003;49.518;11.280;2024-02-15T02:21:28;10.50;99.90
76211;DHT22;65003;49.518;11.280;2024-02-15T02:23:56;10.50;99.90
76211;DHT22;65003;49.518;11.280;2024-02-15T02:26:22;10.40;99.90
76211;DHT22;65003;49.518;11.280;2024-02-15T02:28:49;10.50;99.90
76211;DHT22;65003;49.518;11.280;2024-02-15T02:31:15;10.50;99.90
76211;DHT22;65003;49.518;11.280;2024-02-15T02:33:42;10.50;99.90
76211;DHT22;65003;49.518;11.280;2024-02-15T02:36:08;10.50;99.90
76211;DHT22;65003;49.518;11.280;2024-02-15T02:38:35;10.60;99.90
76211;DHT22;65003;49.518;11.280;2024-02-15T02:41:01;10.70;99.90
76211;DHT22;65003;49.518;11.280;2024-02-15T02:43:28;10.60;99.90
76211;DHT22;65003;49.518;11.280;2024-02-15T02:45:55;10.70;99.90
76211;DHT22;65003;49.518;11.280;2024-02-15T02:48:21;10.70;99.90
76211;DHT22;65003;49.518;11.280;2024-02-15T02:50:48;10.60;99.90
76211;DHT22;65003;49.518;11.280;2024-02-15T02:53:14;10.60;99.90
76211;DHT22;65003;49.518;11.280;2024-02-15T02:55:41;10.40;99.90
76211;DHT22;65003;49.518;11.280;2024-02-15T02:58:08;10.50;99.90
76211;DHT22;65003;49.518;11.280;2024-02-15T03:00:34;10.60;99.90
76211;DHT22;65003;49.518;11.280;2024-02-15T03:03:01;10.60;99.90
76211;DHT22;65003;49.518;11.280;2024-02-15T03:05:27;10.70;99.90
76211;DHT22;65003;49.518;11.280;2024-02-15T03:07:54;10.70;99.90
76211;DHT22;65003;49.518;11.280;2024-02-15T03:10:21;10.30;99.90
76211;DHT22;65003;49.518;11.280;2024-02-15T03:12:47;10.70;99.90
76211;DHT22;65003;49.518;11.280;2024-02-15T03:15:14;10.80;99.90
76211;DHT22;65003;49.518;11.280;2024-02-15T03:17:41;11.20;99.90
76211;DHT22;65003;49.518;11.280;2024-02-15T03:20:08;10.70;99.90
76211;DHT22;65003;49.518;11.280;2024-02-15T03:22:54;10.90;99.90
76211;DHT22;65003;49.518;11.280;2024-02-15T03:25:20;11.00;99.90
76211;DHT22;65003;49.518;11.280;2024-02-15T03:27:47;10.90;99.90
76211;DHT22;65003;49.518;11.280;2024-02-15T03:30:13;10.80;99.90
76211;DHT22;65003;49.518;11.280;2024-02-15T03:32:40;11.00;99.90
76211;DHT22;65003;49.518;11.280;2024-02-15T03:35:07;10.90;99.90
76211;DHT22;65003;49.518;11.280;2024-02-15T03:37:33;10.80;99.90
76211;DHT22;65003;49.518;11.280;2024-02-15T03:40:00;10.90;99.90
76211;DHT22;65003;49.518;11.280;2024-02-15T03:42:26;10.90;99.90
76211;DHT22;65003;49.518;11.280;2024-02-15T03:44:53;10.90;99.90
76211;DHT22;65003;49.518;11.280;2024-02-15T03:47:20;10.90;99.90
76211;DHT22;65003;49.518;11.280;2024-02-15T03:49:46;10.90;99.90
76211;DHT22;65003;49.518;11.280;2024-02-15T03:52:13;11.00;99.90
76211;DHT22;65003;49.518;11.280;2024-02-15T03:54:39;10.90;99.90
76211;DHT22;65003;49.518;11.280;2024-02-15T03:57:06;10.80;99.90
76211;DHT22;65003;49.518;11.280;2024-02-15T03:59:33;10.80;99.90
76211;DHT22;65003;49.518;11.280;2024-02-15T04:01:59;10.70;99.90
76211;DHT22;65003;49.518;11.280;2024-02-15T04:04:26;10.80;99.90
76211;DHT22;65003;49.518;11.280;2024-02-15T04:06:52;10.90;99.90
76211;DHT22;65003;49.518;11.280;2024-02-15T04:09:19;10.80;99.90
76211;DHT22;65003;49.518;11.280;2024-02-15T04:11:47;10.90;99.90
76211;DHT22;65003;49.518;11.280;2024-02-15T04:14:13;11.00;99.90
76211;DHT22;65003;49.518;11.280;2024-02-15T04:16:40;10.90;99.90
76211;DHT22;65003;49.518;11.280;2024-02-15T04:19:07;10.90;99.90
76211;DHT22;65003;49.518;11.280;2024-02-15T04:21:33;10.90;99.90
76211;DHT22;65003;49.518;11.280;2024-02-15T04:24:00;10.90;99.90
76211;DHT22;65003;49.518;11.280;2024-02-15T04:26:26;10.90;99.90
76211;DHT22;65003;49.518;11.280;2024-02-15T04:28:53;10.80;99.90
76211;DHT22;65003;49.518;11.280;2024-02-15T04:31:20;10.70;99.90
76211;DHT22;65003;49.518;11.280;2024-02-15T04:33:46;10.60;99.90
76211;DHT22;65003;49.518;11.280;2024-02-15T04:36:13;10.50;99.90
76211;DHT22;65003;49.518;11.280;2024-02-15T04:38:39;10.40;99.90
76211;DHT22;65003;49.518;11.280;2024-02-15T04:41:06;10.40;99.90
76211;DHT22;65003;49.518;11.280;2024-02-15T04:43:33;10.40;99.90
76211;DHT22;65003;49.518;11.280;2024-02-15T04:45:59;10.40;99.90
76211;DHT22;65003;49.518;11.280;2024-02-15T04:48:26;10.30;99.90
76211;DHT22;65003;49.518;11.280;2024-02-15T04:50:52;10.30;99.90
76211;DHT22;65003;49.518;11.280;2024-02-15T04:53:20;9.90;99.90
76211;DHT22;65003;49.518;11.280;2024-02-15T04:55:46;10.10;99.90
76211;DHT22;65003;49.518;11.280;2024-02-15T04:58:13;10.10;99.90
76211;DHT22;65003;49.518;11.280;2024-02-15T05:00:39;10.00;99.90
76211;DHT22;65003;49.518;11.280;2024-02-15T05:03:06;10.00;99.90
76211;DHT22;65003;49.518;11.280;2024-02-15T05:05:33;9.90;99.90
76211;DHT22;65003;49.518;11.280;2024-02-15T05:07:59;9.80;99.90
76211;DHT22;65003;49.518;11.280;2024-02-15T05:10:26;9.70;99.90
76211;DHT22;65003;49.518;11.280;2024-02-15T05:12:52;9.70;99.90
76211;DHT22;65003;49.518;11.280;2024-02-15T05:15:19;9.70;99.90
76211;DHT22;65003;49.518;11.280;2024-02-15T05:17:45;9.70;99.90
76211;DHT22;65003;49.518;11.280;2024-02-15T05:20:12;9.80;99.90
76211;DHT22;65003;49.518;11.280;2024-02-15T05:22:39;9.80;99.90
76211;DHT22;65003;49.518;11.280;2024-02-15T05:25:06;9.90;99.90
76211;DHT22;65003;49.518;11.280;2024-02-15T05:27:33;9.90;99.90
76211;DHT22;65003;49.518;11.280;2024-02-15T05:29:59;9.90;99.90
76211;DHT22;65003;49.518;11.280;2024-02-15T05:32:26;10.10;99.90
76211;DHT22;65003;49.518;11.280;2024-02-15T05:34:53;10.10;99.90
76211;DHT22;65003;49.518;11.280;2024-02-15T05:37:19;10.40;99.90
76211;DHT22;65003;49.518;11.280;2024-02-15T05:39:46;10.20;99.90
76211;DHT22;65003;49.518;11.280;2024-02-15T05:42:12;10.20;99.90
76211;DHT22;65003;49.518;11.280;2024-02-15T05:44:39;10.30;99.90
76211;DHT22;65003;49.518;11.280;2024-02-15T05:47:05;10.30;99.90
76211;DHT22;65003;49.518;11.280;2024-02-15T05:49:32;10.50;99.90
76211;DHT22;65003;49.518;11.280;2024-02-15T05:51:59;10.40;99.90
76211;DHT22;65003;49.518;11.280;2024-02-15T05:54:25;10.40;99.90
76211;DHT22;65003;49.518;11.280;2024-02-15T05:56:52;10.50;99.90
76211;DHT22;65003;49.518;11.280;2024-02-15T05:59:19;10.40;99.90
76211;DHT22;65003;49.518;11.280;2024-02-15T06:01:45;10.40;99.90
76211;DHT22;65003;49.518;11.280;2024-02-15T06:04:12;10.40;99.90
76211;DHT22;65003;49.518;11.280;2024-02-15T06:06:38;10.40;99.90
76211;DHT22;65003;49.518;11.280;2024-02-15T06:09:05;10.40;99.90
76211;DHT22;65003;49.518;11.280;2024-02-15T06:11:31;9.90;99.90
76211;DHT22;65003;49.518;11.280;2024-02-15T06:14:00;10.30;99.90
76211;DHT22;65003;49.518;11.280;2024-02-15T06:16:26;10.30;99.90
76211;DHT22;65003;49.518;11.280;2024-02-15T06:18:53;10.20;99.90
76211;DHT22;65003;49.518;11.280;2024-02-15T06:21:20;10.20;99.90
76211;DHT22;65003;49.518;11.280;2024-02-15T06:23:46;10.30;99.90
76211;DHT22;65003;49.518;11.280;2024-02-15T06:26:13;10.70;99.90
76211;DHT22;65003;49.518;11.280;2024-02-15T06:28:39;10.30;99.90
76211;DHT22;65003;49.518;11.280;2024-02-15T06:31:13;10.30;99.90
76211;DHT22;65003;49.518;11.280;2024-02-15T06:33:44;10.20;99.90
76211;DHT22;65003;49.518;11.280;2024-02-15T06:36:16;10.20;99.90
76211;DHT22;65003;49.518;11.280;2024-02-15T06:38:48;10.10;99.90
76211;DHT22;65003;49.518;11.280;2024-02-15T06:41:20;10.10;99.90
76211;DHT22;65003;49.518;11.280;2024-02-15T06:43:47;10.10;99.90
76211;DHT22;65003;49.518;11.280;2024-02-15T06:46:14;10.20;99.90
76211;DHT22;65003;49.518;11.280;2024-02-15T06:48:42;10.30;99.90
76211;DHT22;65003;49.518;11.280;2024-02-15T06:51:12;10.30;99.90
76211;DHT22;65003;49.518;11.280;2024-02-15T06:53:36;10.40;99.90
76211;DHT22;65003;49.518;11.280;2024-02-15T06:56:03;10.50;99.90
76211;DHT22;65003;49.518;11.280;2024-02-15T06:58:29;10.60;99.90
76211;DHT22;65003;49.518;11.280;2024-02-15T07:00:56;10.70;99.90
76211;DHT22;65003;49.518;11.280;2024-02-15T07:03:22;10.70;99.90
76211;DHT22;65003;49.518;11.280;2024-02-15T07:05:49;10.80;99.90
76211;DHT22;65003;49.518;11.280;2024-02-15T07:08:16;10.80;99.90
76211;DHT22;65003;49.518;11.280;2024-02-15T07:10:42;10.90;99.90
76211;DHT22;65003;49.518;11.280;2024-02-15T07:13:09;11.00;99.90
76211;DHT22;65003;49.518;11.280;2024-02-15T07:15:35;10.90;99.90
76211;DHT22;65003;49.518;11.280;2024-02-15T07:18:03;11.10;99.90
76211;DHT22;65003;49.518;11.280;2024-02-15T07:20:29;11.10;99.90
76211;DHT22;65003;49.518;11.280;2024-02-15T07:22:56;11.00;99.90
76211;DHT22;65003;49.518;11.280;2024-02-15T07:25:22;10.80;99.90
76211;DHT22;65003;49.518;11.280;2024-02-15T07:27:49;10.60;99.90
76211;DHT22;65003;49.518;11.280;2024-02-15T07:30:16;9.50;99.90
76211;DHT22;65003;49.518;11.280;2024-02-15T07:32:42;10.70;99.90
76211;DHT22;65003;49.518;11.280;2024-02-15T07:35:09;10.50;99.90
76211;DHT22;65003;49.518;11.280;2024-02-15T07:37:35;10.40;99.90
76211;DHT22;65003;49.518;11.280;2024-02-15T07:40:02;10.40;99.90
76211;DHT22;65003;49.518;11.280;2024-02-15T07:42:29;10.30;99.90
76211;DHT22;65003;49.518;11.280;2024-02-15T07:44:56;10.30;99.90
76211;DHT22;65003;49.518;11.280;2024-02-15T07:47:23;10.20;99.90
76211;DHT22;65003;49.518;11.280;2024-02-15T07:49:50;10.20;99.90
76211;DHT22;65003;49.518;11.280;2024-02-15T07:52:17;10.30;99.90
76211;DHT22;65003;49.518;11.280;2024-02-15T07:54:43;10.40;99.90
76211;DHT22;65003;49.518;11.280;2024-02-15T07:57:10;10.60;99.90
76211;DHT22;65003;49.518;11.280;2024-02-15T07:59:36;10.70;99.90
76211;DHT22;65003;49.518;11.280;2024-02-15T08:02:03;10.70;99.90
76211;DHT22;65003;49.518;11.280;2024-02-15T08:04:30;10.70;99.90
76211;DHT22;65003;49.518;11.280;2024-02-15T08:06:56;10.70;99.90
76211;DHT22;65003;49.518;11.280;2024-02-15T08:09:23;10.80;99.90
76211;DHT22;65003;49.518;11.280;2024-02-15T08:11:49;10.80;99.90
76211;DHT22;65003;49.518;11.280;2024-02-15T08:14:17;11.40;99.90
76211;DHT22;65003;49.518;11.280;2024-02-15T08:16:43;11.00;99.90
76211;DHT22;65003;49.518;11.280;2024-02-15T08:19:10;11.20;99.90
76211;DHT22;65003;49.518;11.280;2024-02-15T08:21:36;11.20;99.90
76211;DHT22;65003;49.518;11.280;2024-02-15T08:24:03;11.30;99.90
76211;DHT22;65003;49.518;11.280;2024-02-15T08:26:33;11.30;99.90
76211;DHT22;65003;49.518;11.280;2024-02-15T08:29:00;11.30;99.90
76211;DHT22;65003;49.518;11.280;2024-02-15T08:31:26;11.20;99.90
76211;DHT22;65003;49.518;11.280;2024-02-15T08:33:53;11.20;99.90
76211;DHT22;65003;49.518;11.280;2024-02-15T08:36:19;11.20;99.90
76211;DHT22;65003;49.518;11.280;2024-02-15T08:38:46;11.20;99.90
76211;DHT22;65003;49.518;11.280;2024-02-15T08:41:13;11.20;99.90
76211;DHT22;65003;49.518;11.280;2024-02-15T08:43:39;11.30;99.90
76211;DHT22;65003;49.518;11.280;2024-02-15T08:46:06;11.20;99.90
76211;DHT22;65003;49.518;11.280;2024-02-15T08:48:32;11.00;99.90
76211;DHT22;65003;49.518;11.280;2024-02-15T08:50:59;11.30;99.90
76211;DHT22;65003;49.518;11.280;2024-02-15T08:53:26;11.20;99.90
76211;DHT22;65003;49.518;11.280;2024-02-15T08:55:52;11.50;99.90
76211;DHT22;65003;49.518;11.280;2024-02-15T08:58:19;11.30;99.90
76211;DHT22;65003;49.518;11.280;2024-02-15T09:00:45;11.40;99.90
76211;DHT22;65003;49.518;11.280;2024-02-15T09:03:12;11.50;99.90
76211;DHT22;65003;49.518;11.280;2024-02-15T09:05:40;11.50;99.90
76211;DHT22;65003;49.518;11.280;2024-02-15T09:08:06;11.40;99.90
76211;DHT22;65003;49.518;11.280;2024-02-15T09:10:33;12.20;99.90
76211;DHT22;65003;49.518;11.280;2024-02-15T09:12:59;11.50;99.90
76211;DHT22;65003;49.518;11.280;2024-02-15T09:15:26;11.60;99.90
76211;DHT22;65003;49.518;11.280;2024-02-15T09:17:52;11.60;99.90
76211;DHT22;65003;49.518;11.280;2024-02-15T09:20:20;11.60;99.90
76211;DHT22;65003;49.518;11.280;2024-02-15T09:22:48;11.70;99.90
76211;DHT22;65003;49.518;11.280;2024-02-15T09:25:14;11.70;99.90
76211;DHT22;65003;49.518;11.280;2024-02-15T09:27:41;12.20;99.90
76211;DHT22;65003;49.518;11.280;2024-02-15T09:30:08;11.80;99.90
76211;DHT22;65003;49.518;11.280;2024-02-15T09:32:35;11.80;99.90
76211;DHT22;65003;49.518;11.280;2024-02-15T09:35:01;11.90;99.90
76211;DHT22;65003;49.518;11.280;2024-02-15T09:37:28;11.90;99.90
76211;DHT22;65003;49.518;11.280;2024-02-15T09:39:54;11.90;99.90
76211;DHT22;65003;49.518;11.280;2024-02-15T09:42:22;12.00;99.90
76211;DHT22;65003;49.518;11.280;2024-02-15T09:44:48;12.10;99.90
76211;DHT22;65003;49.518;11.280;2024-02-15T09:47:15;12.10;99.90
76211;DHT22;65003;49.518;11.280;2024-02-15T09:49:41;12.20;99.90
76211;DHT22;65003;49.518;11.280;2024-02-15T09:52:08;12.20;99.90
76211;DHT22;65003;49.518;11.280;2024-02-15T09:54:40;12.30;99.90
76211;DHT22;65003;49.518;11.280;2024-02-15T09:57:06;12.30;99.90
76211;DHT22;65003;49.518;11.280;2024-02-15T09:59:33;12.30;99.90
76211;DHT22;65003;49.518;11.280;2024-02-15T10:02:00;12.90;99.90
76211;DHT22;65003;49.518;11.280;2024-02-15T10:04:26;12.40;99.90
76211;DHT22;65003;49.518;11.280;2024-02-15T10:06:53;12.40;99.90
76211;DHT22;65003;49.518;11.280;2024-02-15T10:09:24;12.50;99.90
76211;DHT22;65003;49.518;11.280;2024-02-15T10:11:54;12.50;99.90
76211;DHT22;65003;49.518;11.280;2024-02-15T10:14:22;12.60;99.90
76211;DHT22;65003;49.518;11.280;2024-02-15T10:16:48;12.60;99.90
76211;DHT22;65003;49.518;11.280;2024-02-15T10:19:15;12.80;99.90
76211;DHT22;65003;49.518;11.280;2024-02-15T10:21:41;12.80;99.90
76211;DHT22;65003;49.518;11.280;2024-02-15T10:24:08;12.80;99.90
76211;DHT22;65003;49.518;11.280;2024-02-15T10:26:35;12.80;99.90
76211;DHT22;65003;49.518;11.280;2024-02-15T10:29:08;12.90;99.90
76211;DHT22;65003;49.518;11.280;2024-02-15T10:31:35;12.90;99.90
76211;DHT22;65003;49.518;11.280;2024-02-15T10:34:03;12.90;99.90
76211;DHT22;65003;49.518;11.280;2024-02-15T10:36:28;13.00;99.90
76211;DHT22;65003;49.518;11.280;2024-02-15T10:39:09;13.10;99.90
76211;DHT22;65003;49.518;11.280;2024-02-15T10:41:21;13.20;99.90
76211;DHT22;65003;49.518;11.280;2024-02-15T10:43:48;13.30;99.90
76211;DHT22;65003;49.518;11.280;2024-02-15T10:46:15;13.40;99.90
76211;DHT22;65003;49.518;11.280;2024-02-15T10:48:41;13.50;99.90
76211;DHT22;65003;49.518;11.280;2024-02-15T10:51:09;13.60;99.90
76211;DHT22;65003;49.518;11.280;2024-02-15T10:53:35;13.80;99.90
76211;DHT22;65003;49.518;11.280;2024-02-15T10:56:21;13.90;99.90
76211;DHT22;65003;49.518;11.280;2024-02-15T10:58:49;14.10;99.90
76211;DHT22;65003;49.518;11.280;2024-02-15T11:01:15;14.30;99.90
76211;DHT22;65003;49.518;11.280;2024-02-15T11:03:43;14.40;99.90
76211;DHT22;65003;49.518;11.280;2024-02-15T11:06:07;14.50;99.90
76211;DHT22;65003;49.518;11.280;2024-02-15T11:08:34;14.70;99.90
76211;DHT22;65003;49.518;11.280;2024-02-15T11:11:00;14.70;99.90
76211;DHT22;65003;49.518;11.280;2024-02-15T11:13:27;15.70;99.90
76211;DHT22;65003;49.518;11.280;2024-02-15T11:15:53;16.00;99.90
76211;DHT22;65003;49.518;11.280;2024-02-15T11:19:00;16.60;99.90
76211;DHT22;65003;49.518;11.280;2024-02-15T11:21:11;17.00;99.90
76211;DHT22;65003;49.518;11.280;2024-02-15T11:23:37;17.10;99.90
76211;DHT22;65003;49.518;11.280;2024-02-15T11:26:04;16.40;99.90
76211;DHT22;65003;49.518;11.280;2024-02-15T11:28:34;17.50;99.90
76211;DHT22;65003;49.518;11.280;2024-02-15T11:30:59;17.60;99.90
76211;DHT22;65003;49.518;11.280;2024-02-15T11:33:30;17.60;99.90
76211;DHT22;65003;49.518;11.280;2024-02-15T11:36:06;17.30;99.90
76211;DHT22;65003;49.518;11.280;2024-02-15T11:38:32;17.10;99.90
76211;DHT22;65003;49.518;11.280;2024-02-15T11:41:00;17.60;99.90
76211;DHT22;65003;49.518;11.280;2024-02-15T11:46:05;17.10;99.90
76211;DHT22;65003;49.518;11.280;2024-02-15T11:48:31;16.60;99.90
76211;DHT22;65003;49.518;11.280;2024-02-15T11:50:58;17.30;99.90
76211;DHT22;65003;49.518;11.280;2024-02-15T11:53:24;16.90;99.40
76211;DHT22;65003;49.518;11.280;2024-02-15T11:55:51;17.70;99.20
76211;DHT22;65003;49.518;11.280;2024-02-15T11:58:18;17.90;98.60
76211;DHT22;65003;49.518;11.280;2024-02-15T12:00:44;18.10;98.50
76211;DHT22;65003;49.518;11.280;2024-02-15T12:03:17;18.10;99.00
76211;DHT22;65003;49.518;11.280;2024-02-15T12:05:49;18.20;98.10
76211;DHT22;65003;49.518;11.280;2024-02-15T12:08:21;18.20;97.10
76211;DHT22;65003;49.518;11.280;2024-02-15T12:10:59;18.30;98.00
76211;DHT22;65003;49.518;11.280;2024-02-15T12:13:31;18.30;98.00
76211;DHT22;65003;49.518;11.280;2024-02-15T12:16:03;18.50;97.50
76211;DHT22;65003;49.518;11.280;2024-02-15T12:18:35;18.40;97.30
76211;DHT22;65003;49.518;11.280;2024-02-15T12:21:05;18.30;97.10
76211;DHT22;65003;49.518;11.280;2024-02-15T12:23:32;18.00;97.50
76211;DHT22;65003;49.518;11.280;2024-02-15T12:25:58;17.90;97.50
76211;DHT22;65003;49.518;11.280;2024-02-15T12:28:25;17.70;98.30
76211;DHT22;65003;49.518;11.280;2024-02-15T12:30:55;17.70;98.20
76211;DHT22;65003;49.518;11.280;2024-02-15T12:33:22;17.20;98.60
76211;DHT22;65003;49.518;11.280;2024-02-15T12:35:49;17.40;98.90
76211;DHT22;65003;49.518;11.280;2024-02-15T12:38:15;16.90;99.00
76211;DHT22;65003;49.518;11.280;2024-02-15T12:40:42;16.70;99.60
76211;DHT22;65003;49.518;11.280;2024-02-15T12:43:08;16.60;99.30
76211;DHT22;65003;49.518;11.280;2024-02-15T12:45:36;16.70;99.50
76211;DHT22;65003;49.518;11.280;2024-02-15T12:48:04;16.00;99.50
76211;DHT22;65003;49.518;11.280;2024-02-15T12:50:31;16.80;99.60
76211;DHT22;65003;49.518;11.280;2024-02-15T12:52:57;16.80;99.30
76211;DHT22;65003;49.518;11.280;2024-02-15T12:55:30;15.60;99.10
76211;DHT22;65003;49.518;11.280;2024-02-15T12:57:56;16.80;98.60
76211;DHT22;65003;49.518;11.280;2024-02-15T13:00:23;16.80;99.00
76211;DHT22;65003;49.518;11.280;2024-02-15T13:02:50;17.00;98.80
76211;DHT22;65003;49.518;11.280;2024-02-15T13:05:17;17.00;99.20
76211;DHT22;65003;49.518;11.280;2024-02-15T13:07:48;17.30;98.80
76211;DHT22;65003;49.518;11.280;2024-02-15T13:10:14;17.10;98.60
76211;DHT22;65003;49.518;11.280;2024-02-15T13:12:42;17.20;97.80
76211;DHT22;65003;49.518;11.280;2024-02-15T13:15:08;17.20;97.60
76211;DHT22;65003;49.518;11.280;2024-02-15T13:17:35;17.20;97.60
76211;DHT22;65003;49.518;11.280;2024-02-15T13:20:02;17.20;97.20
76211;DHT22;65003;49.518;11.280;2024-02-15T13:22:28;17.20;97.30
76211;DHT22;65003;49.518;11.280;2024-02-15T13:24:55;17.30;96.60
76211;DHT22;65003;49.518;11.280;2024-02-15T13:27:22;17.50;96.40
76211;DHT22;65003;49.518;11.280;2024-02-15T13:29:48;17.60;97.00
76211;DHT22;65003;49.518;11.280;2024-02-15T13:32:15;17.80;97.00
76211;DHT22;65003;49.518;11.280;2024-02-15T13:34:41;17.80;96.40
76211;DHT22;65003;49.518;11.280;2024-02-15T13:37:08;17.80;96.60
76211;DHT22;65003;49.518;11.280;2024-02-15T13:39:34;17.80;96.90
76211;DHT22;65003;49.518;11.280;2024-02-15T13:42:01;17.80;96.90
76211;DHT22;65003;49.518;11.280;2024-02-15T13:44:28;17.80;97.00
76211;DHT22;65003;49.518;11.280;2024-02-15T13:46:54;17.90;96.60
76211;DHT22;65003;49.518;11.280;2024-02-15T13:49:21;17.70;96.00
76211;DHT22;65003;49.518;11.280;2024-02-15T13:51:48;17.60;96.00
76211;DHT22;65003;49.518;11.280;2024-02-15T13:54:14;17.50;96.50
76211;DHT22;65003;49.518;11.280;2024-02-15T13:56:41;17.50;95.90
76211;DHT22;65003;49.518;11.280;2024-02-15T13:59:07;17.40;96.90
76211;DHT22;65003;49.518;11.280;2024-02-15T14:01:34;17.40;96.10
76211;DHT22;65003;49.518;11.280;2024-02-15T14:04:01;17.40;96.40
76211;DHT22;65003;49.518;11.280;2024-02-15T14:06:27;17.20;96.00
76211;DHT22;65003;49.518;11.280;2024-02-15T14:08:54;17.10;96.60
76211;DHT22;65003;49.518;11.280;2024-02-15T14:11:20;17.10;96.80
76211;DHT22;65003;49.518;11.280;2024-02-15T14:13:47;16.80;96.90
76211;DHT22;65003;49.518;11.280;2024-02-15T14:16:13;16.70;96.90
76211;DHT22;65003;49.518;11.280;2024-02-15T14:18:40;16.70;97.30
76211;DHT22;65003;49.518;11.280;2024-02-15T14:21:07;16.70;97.60
76211;DHT22;65003;49.518;11.280;2024-02-15T14:23:33;16.60;97.10
76211;DHT22;65003;49.518;11.280;2024-02-15T14:26:00;16.60;97.20
76211;DHT22;65003;49.518;11.280;2024-02-15T14:28:26;16.40;97.40
76211;DHT22;65003;49.518;11.280;2024-02-15T14:30:53;16.40;97.60
76211;DHT22;65003;49.518;11.280;2024-02-15T14:33:25;16.30;97.50
76211;DHT22;65003;49.518;11.280;2024-02-15T14:35:52;16.30;97.60
76211;DHT22;65003;49.518;11.280;2024-02-15T14:38:20;16.20;97.50
76211;DHT22;65003;49.518;11.280;2024-02-15T14:40:47;16.60;97.90
76211;DHT22;65003;49.518;11.280;2024-02-15T14:43:14;16.20;97.80
76211;DHT22;65003;49.518;11.280;2024-02-15T14:45:41;16.20;98.00
76211;DHT22;65003;49.518;11.280;2024-02-15T14:48:08;16.20;98.10
76211;DHT22;65003;49.518;11.280;2024-02-15T14:50:37;16.10;98.50
76211;DHT22;65003;49.518;11.280;2024-02-15T14:53:03;16.10;98.30
76211;DHT22;65003;49.518;11.280;2024-02-15T14:55:30;16.00;98.20
76211;DHT22;65003;49.518;11.280;2024-02-15T14:57:57;15.80;98.40
76211;DHT22;65003;49.518;11.280;2024-02-15T15:00:23;15.70;98.80
76211;DHT22;65003;49.518;11.280;2024-02-15T15:02:50;15.70;99.20
76211;DHT22;65003;49.518;11.280;2024-02-15T15:05:16;15.60;99.30
76211;DHT22;65003;49.518;11.280;2024-02-15T15:07:49;15.50;99.00
76211;DHT22;65003;49.518;11.280;2024-02-15T15:10:21;15.50;99.30
76211;DHT22;65003;49.518;11.280;2024-02-15T15:12:53;15.50;99.60
76211;DHT22;65003;49.518;11.280;2024-02-15T15:15:20;15.50;99.40
76211;DHT22;65003;49.518;11.280;2024-02-15T15:17:46;15.30;99.70
76211;DHT22;65003;49.518;11.280;2024-02-15T15:20:13;15.30;99.90